עמוד ראשי
METAR-TAF:

METAR-TAF

שדות תעופה :

שיראז, איראן

קו רוחב: 29-32N, קו אורך: 052-35E, גובה: 1486מטר

תצפית מזג אוויר נוכחית

הדו"ח נערך לפני 30דקות, בשעה 00:00 UTC
רוח 4קשר מכיוון דרום/דרום-מערב
טמפרטורת 19 צלסיוס
לחות 37%
לחץ 1013 hPa
ראות 10 קילומטר או יותר
ללא עננים שבסיסם נמוך מ 5000 רגל או קומולונימבוס

METAR: OISS 160000Z 21004KT CAVOK 19/04 Q1013 A2992

זמן: 05:00 (00:30 UTC)

תחזית

הדו"ח נערך לפני 1 שעות ו 30דקות, בשעה 23:00 UTC
תחזית בתוקף מ 16 ב 00 UTC עד 17 ב 06 UTC
רוח 7קשר מכיוון מערב/צפון-מערב
ראות: 8000מטר
מעט עננים בגובה 3500רגל
זמנית מ -
16 ב 09 UTC עד 16 ב 17 UTC
רוח 13קשר מכיוון מערב/צפון-מערב עם משבים עד 23קשר
מעט עננים בגובה 3500רגל , קומולונימבוס.
עננים פזורים בגובה 3500רגל

TAF: OISS 152300Z 1600/1706 30007KT 8000 FEW035 TEMPO 1609/1617 30013G23KT FEW035CB SCT035

תצפיות ותחזיות מזג אוויר לגבי יותר מ- 4,000 שדות תעופה ברחבי העולם. דוחות METAR ו- TAF.

התחנות הזמינות מסומנות בנקודות צהובות ואדומות על גבי המפה.

העבר את העכבר לנקודה הצבעונית על מנת לראות את שם התחנה.

לאחר מכן, לחץ כדי לראות את תוכן ואת תחזיות מזג האוויר.

כדי לשנות את המפה: לחץ על הכפתורים הירוקים עם הפלוס השחור כדי להתקרב; על הכפתור הירוק עם המקף כדי להתרחק; או בחיצים הירוקים למפות סמוכות.


METAR-TAF: